Bereldange, Luxembourg
Current Conditions -  °F | °C
As of 6:50 AM on Thursday 18 Dec 2014 (Local Time) from ELLX Reporting Station
Drizzle Drizzle  
Wind Chill: 44°   Ceiling: 400
Heat Index: 48°   Visibility: 1.5mi
Dew Point: 48°   Wind: 9mph
Humidity: 100%   Direction: 220°SW
Pressure: 29.88"   Gusts: NA
Location:  49.66°N, 6.13°E
Report Text: ELLX 180550Z 22008KT 2500 -DZ BR SCT003 BKN004 09/09 Q1012 NOSIG
Loading
Personal Weather Stations






























Interactive Weather Map New forecast layout! Learn more

10-Day Weather Forecast

Advertisements
Track Severe Weather on mobile